Time;durP1;ratioP1;P1;durP2;ratioP2;P2;SDS_P1;SDS_P2;PMS_P1;PMS_P2;Temp;Humidity;BMP_temperature;BMP_pressure;BME280_temperature;BME280_humidity;BME280_pressure;Samples;Min_cycle;Max_cycle;Signal;HPM_P1;HPM_P2
2020/12/20 00:00:15;;;;;;;15.40;9.10;;;8.50;99.90;;;;;;4947750;29;20252;-79
2020/12/20 00:02:48;;;;;;;16.63;8.40;;;8.50;99.90;;;;;;4948071;29;20236;-79
2020/12/20 00:05:15;;;;;;;14.37;8.50;;;8.50;99.90;;;;;;4948007;29;20204;-81
2020/12/20 00:07:41;;;;;;;16.87;9.57;;;8.50;99.90;;;;;;4948313;29;20212;-87
2020/12/20 00:10:08;;;;;;;18.53;9.30;;;8.50;99.90;;;;;;4948534;29;20205;-79
2020/12/20 00:12:35;;;;;;;17.17;9.93;;;8.50;99.90;;;;;;4948270;29;20216;-84
2020/12/20 00:15:01;;;;;;;16.20;9.40;;;8.50;99.90;;;;;;4948731;29;20209;-82
2020/12/20 00:17:28;;;;;;;15.80;9.23;;;8.50;99.90;;;;;;4948032;29;20216;-81
2020/12/20 00:19:54;;;;;;;18.60;9.20;;;8.50;99.90;;;;;;4947350;29;20214;-85
2020/12/20 00:22:20;;;;;;;15.80;9.50;;;8.50;99.90;;;;;;4948802;29;20284;-81
2020/12/20 00:24:46;;;;;;;17.30;9.40;;;8.50;99.90;;;;;;4947863;29;20232;-81
2020/12/20 00:27:14;;;;;;;18.27;9.13;;;8.50;99.90;;;;;;4946831;29;20216;-79
2020/12/20 00:29:40;;;;;;;22.97;9.17;;;8.50;99.90;;;;;;4948544;29;20465;-85
2020/12/20 00:32:08;;;;;;;13.73;8.90;;;8.50;99.90;;;;;;4948631;29;20201;-84
2020/12/20 00:34:36;;;;;;;20.80;9.33;;;8.60;99.90;;;;;;4947638;29;20197;-80
2020/12/20 00:37:04;;;;;;;18.37;9.27;;;8.50;99.90;;;;;;4946685;29;20205;-88
2020/12/20 00:39:30;;;;;;;18.67;8.83;;;8.50;99.90;;;;;;4949298;29;20209;-87
2020/12/20 00:41:58;;;;;;;17.83;8.80;;;8.50;99.90;;;;;;4948261;29;20224;-80
2020/12/20 00:44:26;;;;;;;15.20;9.30;;;8.50;99.90;;;;;;4947601;29;20204;-80
2020/12/20 00:46:54;;;;;;;23.27;10.23;;;8.50;99.90;;;;;;4947851;29;20216;-80
2020/12/20 00:49:21;;;;;;;17.50;8.87;;;8.50;99.90;;;;;;4948845;28;20197;-87
2020/12/20 00:51:47;;;;;;;14.87;8.73;;;8.60;99.90;;;;;;4951536;29;20194;-79
2020/12/20 00:54:14;;;;;;;20.33;9.10;;;8.60;99.90;;;;;;4951005;29;20208;-80
2020/12/20 00:56:41;;;;;;;14.57;9.03;;;8.60;99.90;;;;;;4952394;29;20201;-80
2020/12/20 00:59:07;;;;;;;18.17;9.83;;;8.60;99.90;;;;;;4951749;29;20197;-87
2020/12/20 01:01:34;;;;;;;21.03;9.77;;;8.60;99.90;;;;;;4951611;29;20557;-88
2020/12/20 01:04:00;;;;;;;18.67;9.40;;;8.50;99.90;;;;;;4950919;29;20912;-81
2020/12/20 01:06:27;;;;;;;21.43;9.23;;;8.50;99.90;;;;;;4951190;29;20845;-83
2020/12/20 01:08:53;;;;;;;17.77;10.27;;;8.60;99.90;;;;;;4948864;29;20662;-80
2020/12/20 01:11:20;;;;;;;15.37;8.77;;;8.60;99.90;;;;;;4948957;29;20205;-87
2020/12/20 01:13:48;;;;;;;23.30;9.60;;;8.50;99.90;;;;;;4948609;29;20881;-81
2020/12/20 01:16:15;;;;;;;18.30;9.40;;;8.50;99.90;;;;;;4947363;29;20214;-81
2020/12/20 01:18:42;;;;;;;17.83;9.00;;;8.50;99.90;;;;;;4947596;29;20538;-81
2020/12/20 01:21:09;;;;;;;13.53;8.30;;;8.50;99.90;;;;;;4939874;29;20209;-82
2020/12/20 01:23:35;;;;;;;14.27;8.60;;;8.50;99.90;;;;;;4928479;29;20226;-80
2020/12/20 01:26:02;;;;;;;16.50;8.77;;;8.50;99.90;;;;;;4928424;29;20221;-80
2020/12/20 01:28:29;;;;;;;21.13;9.30;;;8.50;99.90;;;;;;4928625;29;20210;-79
2020/12/20 01:30:55;;;;;;;19.30;8.57;;;8.50;99.90;;;;;;4929572;29;20217;-79
2020/12/20 01:33:21;;;;;;;15.00;8.47;;;8.50;99.90;;;;;;4928785;29;20253;-79
2020/12/20 01:35:49;;;;;;;15.80;8.20;;;8.50;99.90;;;;;;4929771;29;20221;-80
2020/12/20 01:38:15;;;;;;;16.77;9.83;;;8.50;99.90;;;;;;4930141;29;20265;-79
2020/12/20 01:40:42;;;;;;;22.17;9.30;;;8.50;99.90;;;;;;4929859;29;20202;-79
2020/12/20 01:43:08;;;;;;;19.50;9.17;;;8.60;99.90;;;;;;4929486;29;20244;-80
2020/12/20 01:45:35;;;;;;;20.10;8.77;;;8.60;99.90;;;;;;4929840;29;20206;-80
2020/12/20 01:48:03;;;;;;;17.47;9.30;;;8.60;99.90;;;;;;4929392;29;20202;-81
2020/12/20 01:50:30;;;;;;;12.77;9.33;;;8.60;99.90;;;;;;4928786;29;20201;-79
2020/12/20 01:52:57;;;;;;;18.23;8.93;;;8.60;99.90;;;;;;4929915;29;20209;-82
2020/12/20 01:55:25;;;;;;;19.43;9.20;;;8.60;99.90;;;;;;4929079;29;20226;-79
2020/12/20 01:57:53;;;;;;;19.57;9.50;;;8.60;99.90;;;;;;4927544;29;20220;-81
2020/12/20 02:00:20;;;;;;;18.47;9.80;;;8.60;99.90;;;;;;4926758;29;20242;-81
2020/12/20 02:02:46;;;;;;;17.83;9.00;;;8.60;99.90;;;;;;4926219;29;20233;-87
2020/12/20 02:05:12;;;;;;;14.50;9.37;;;8.60;99.90;;;;;;4927169;29;20209;-81
2020/12/20 02:07:39;;;;;;;20.70;9.30;;;8.60;99.90;;;;;;4928022;29;20210;-80
2020/12/20 02:10:06;;;;;;;20.57;9.30;;;8.60;99.90;;;;;;4929180;29;20202;-80
2020/12/20 02:12:32;;;;;;;14.60;9.10;;;8.60;99.90;;;;;;4928956;29;20221;-80
2020/12/20 02:14:59;;;;;;;20.17;9.73;;;8.60;99.90;;;;;;4929025;29;20201;-82
2020/12/20 02:17:25;;;;;;;20.20;8.77;;;8.60;99.90;;;;;;4929370;29;20681;-80
2020/12/20 02:19:52;;;;;;;16.77;9.30;;;8.60;99.90;;;;;;4928936;29;20210;-80
2020/12/20 02:22:19;;;;;;;16.40;8.67;;;8.60;99.90;;;;;;4945580;29;20260;-80
2020/12/20 02:24:45;;;;;;;24.37;9.63;;;8.60;99.90;;;;;;4947567;29;20492;-80
2020/12/20 02:27:12;;;;;;;22.60;9.27;;;8.60;99.90;;;;;;4946463;29;20209;-80
2020/12/20 02:29:38;;;;;;;16.00;7.97;;;8.60;99.90;;;;;;4947590;29;20700;-80
2020/12/20 02:32:05;;;;;;;16.73;9.67;;;8.50;99.90;;;;;;4947196;29;20201;-80
2020/12/20 02:34:31;;;;;;;17.07;8.53;;;8.60;99.90;;;;;;4947344;29;20870;-82
2020/12/20 02:36:57;;;;;;;20.63;9.07;;;8.60;99.90;;;;;;4948655;29;20213;-79
2020/12/20 02:39:24;;;;;;;18.40;7.93;;;8.60;99.90;;;;;;4946400;29;20291;-79
2020/12/20 02:41:55;;;;;;;17.97;9.33;;;8.60;99.90;;;;;;4945085;29;20193;-80
2020/12/20 02:44:21;;;;;;;16.20;7.73;;;8.60;99.90;;;;;;4947169;29;20200;-81
2020/12/20 02:46:48;;;;;;;21.80;8.03;;;8.60;99.90;;;;;;4947033;29;20547;-80
2020/12/20 02:49:14;;;;;;;17.53;7.50;;;8.60;99.90;;;;;;4947535;29;20217;-80
2020/12/20 02:51:40;;;;;;;20.13;8.77;;;8.60;99.90;;;;;;4947809;29;20201;-81
2020/12/20 02:54:07;;;;;;;21.47;8.60;;;8.60;99.90;;;;;;4946439;29;20883;-81
2020/12/20 02:56:34;;;;;;;15.67;7.77;;;8.60;99.90;;;;;;4947199;29;20216;-80
2020/12/20 02:59:00;;;;;;;18.30;8.67;;;8.60;99.90;;;;;;4946835;29;20193;-80
2020/12/20 03:01:26;;;;;;;14.77;7.23;;;8.60;99.90;;;;;;4947113;29;20248;-80
2020/12/20 03:03:53;;;;;;;15.33;8.37;;;8.70;99.90;;;;;;4947005;29;20281;-80
2020/12/20 03:06:19;;;;;;;13.87;7.57;;;8.70;99.90;;;;;;4946177;29;20508;-81
2020/12/20 03:08:46;;;;;;;17.40;7.50;;;8.70;99.90;;;;;;4929073;29;20205;-81
2020/12/20 03:11:13;;;;;;;25.20;8.90;;;8.70;99.90;;;;;;4950097;29;20200;-82
2020/12/20 03:13:40;;;;;;;17.17;6.70;;;8.70;99.90;;;;;;4947812;28;20256;-79
2020/12/20 03:16:06;;;;;;;16.27;6.93;;;8.80;99.90;;;;;;4947914;29;20208;-84
2020/12/20 03:18:32;;;;;;;14.27;6.60;;;8.80;99.90;;;;;;4947977;29;20202;-79
2020/12/20 03:20:59;;;;;;;16.33;7.73;;;8.80;99.90;;;;;;4940658;29;20630;-79
2020/12/20 03:23:25;;;;;;;16.97;6.73;;;8.80;99.90;;;;;;4927475;29;20633;-79
2020/12/20 03:25:51;;;;;;;19.93;6.50;;;8.80;99.90;;;;;;4928260;29;20559;-85
2020/12/20 03:28:17;;;;;;;16.77;6.50;;;8.80;99.90;;;;;;4928816;29;20210;-79
2020/12/20 03:30:44;;;;;;;18.93;7.10;;;8.80;99.90;;;;;;4927633;29;20206;-80
2020/12/20 03:33:11;;;;;;;16.07;5.83;;;8.80;99.90;;;;;;4927727;29;20202;-80
2020/12/20 03:35:37;;;;;;;17.13;6.33;;;8.90;99.90;;;;;;4929308;29;20202;-81
2020/12/20 03:38:03;;;;;;;16.10;5.60;;;8.80;99.90;;;;;;4927184;29;20872;-79
2020/12/20 03:40:30;;;;;;;21.27;5.90;;;8.80;99.90;;;;;;4927936;29;20621;-80
2020/12/20 03:42:56;;;;;;;16.13;5.67;;;8.80;99.90;;;;;;4928334;29;20693;-82
2020/12/20 03:45:22;;;;;;;17.63;5.93;;;8.80;99.90;;;;;;4927752;29;20669;-80
2020/12/20 03:47:49;;;;;;;19.23;5.60;;;8.80;99.90;;;;;;4927716;29;20265;-80
2020/12/20 03:50:16;;;;;;;18.67;5.30;;;8.90;99.90;;;;;;4928313;29;20603;-79
2020/12/20 03:52:42;;;;;;;17.87;4.90;;;8.90;99.90;;;;;;4928621;29;20202;-80
2020/12/20 03:55:08;;;;;;;20.10;6.07;;;8.80;99.90;;;;;;4926654;29;20213;-80
2020/12/20 03:57:35;;;;;;;20.50;5.70;;;8.80;99.90;;;;;;4927520;29;20304;-86
2020/12/20 04:00:01;;;;;;;13.40;4.50;;;8.80;99.90;;;;;;4929022;29;20331;-84
2020/12/20 04:02:28;;;;;;;18.43;5.23;;;8.70;99.90;;;;;;4926840;29;20230;-80
2020/12/20 04:04:55;;;;;;;16.30;5.30;;;8.70;99.90;;;;;;4926763;29;20229;-80
2020/12/20 04:07:21;;;;;;;13.47;5.17;;;8.70;99.90;;;;;;4928333;29;20209;-79
2020/12/20 04:09:48;;;;;;;18.00;5.57;;;8.70;99.90;;;;;;4929280;29;20217;-83
2020/12/20 04:12:14;;;;;;;12.07;5.00;;;8.70;99.90;;;;;;4926522;29;20209;-80
2020/12/20 04:14:41;;;;;;;17.13;5.23;;;8.70;99.90;;;;;;4929421;29;20643;-80
2020/12/20 04:17:07;;;;;;;17.27;4.73;;;8.70;99.90;;;;;;4911740;29;20274;-81
2020/12/20 04:19:34;;;;;;;15.30;5.03;;;8.70;99.90;;;;;;4927249;29;20610;-81
2020/12/20 04:22:01;;;;;;;18.40;4.87;;;8.70;99.90;;;;;;4928330;29;20545;-82
2020/12/20 04:24:27;;;;;;;17.60;5.47;;;8.60;99.90;;;;;;4928992;29;20324;-80
2020/12/20 04:26:54;;;;;;;16.13;5.07;;;8.60;99.90;;;;;;4928072;29;20202;-84
2020/12/20 04:29:20;;;;;;;16.73;5.17;;;8.60;99.90;;;;;;4926730;29;20216;-83
2020/12/20 04:31:46;;;;;;;14.57;5.20;;;8.60;99.90;;;;;;4928687;29;20321;-80
2020/12/20 04:34:12;;;;;;;15.03;6.03;;;8.50;99.90;;;;;;4927393;29;20276;-80
2020/12/20 04:36:39;;;;;;;13.73;5.23;;;8.50;99.90;;;;;;4927546;29;20206;-79
2020/12/20 04:39:06;;;;;;;13.53;5.03;;;8.50;99.90;;;;;;4927518;29;20205;-88
2020/12/20 04:41:33;;;;;;;16.20;5.20;;;8.50;99.90;;;;;;4928302;29;20207;-89
2020/12/20 04:43:59;;;;;;;18.40;6.07;;;8.40;99.90;;;;;;4926699;29;20662;-81
2020/12/20 04:46:27;;;;;;;16.60;6.20;;;8.40;99.90;;;;;;4926141;29;20214;-80
2020/12/20 04:48:54;;;;;;;14.57;6.10;;;8.30;99.90;;;;;;4928160;29;20297;-81
2020/12/20 04:51:21;;;;;;;15.17;6.20;;;8.30;99.90;;;;;;4927366;29;20902;-84
2020/12/20 04:53:48;;;;;;;16.10;6.30;;;8.30;99.90;;;;;;4925925;29;20199;-82
2020/12/20 04:56:17;;;;;;;23.53;7.77;;;8.30;99.90;;;;;;4926984;29;20266;-81
2020/12/20 04:58:43;;;;;;;35.57;7.73;;;8.30;99.90;;;;;;4928736;29;20293;-80
2020/12/20 05:01:09;;;;;;;15.73;6.87;;;8.20;99.90;;;;;;4926208;29;20256;-81
2020/12/20 05:03:36;;;;;;;17.80;6.73;;;8.20;99.90;;;;;;4925858;29;20238;-81
2020/12/20 05:06:04;;;;;;;16.53;6.57;;;8.20;99.90;;;;;;4927478;29;20202;-81
2020/12/20 05:08:30;;;;;;;18.53;7.10;;;8.20;99.90;;;;;;4927457;29;20202;-80
2020/12/20 05:10:56;;;;;;;18.00;6.90;;;8.20;99.90;;;;;;4926103;29;20213;-80
2020/12/20 05:13:37;;;;;;;22.03;8.77;;;8.10;99.90;;;;;;4925516;29;20202;-81
2020/12/20 05:16:04;;;;;;;13.97;7.70;;;8.10;99.90;;;;;;4926635;29;20241;-80
2020/12/20 05:18:30;;;;;;;17.20;6.70;;;8.10;99.90;;;;;;4925919;29;20213;-81
2020/12/20 05:20:56;;;;;;;18.63;6.97;;;8.10;99.90;;;;;;4915207;29;20641;-81
2020/12/20 05:23:28;;;;;;;18.53;7.30;;;8.10;99.90;;;;;;4945654;29;20235;-83
2020/12/20 05:26:05;;;;;;;17.23;7.63;;;8.10;99.90;;;;;;4944977;29;20565;-80
2020/12/20 05:28:34;;;;;;;17.93;7.27;;;8.00;99.90;;;;;;4944598;29;20209;-82
2020/12/20 05:31:07;;;;;;;18.90;7.27;;;8.00;99.90;;;;;;4944383;29;20205;-82
2020/12/20 05:33:34;;;;;;;14.90;7.27;;;8.00;99.90;;;;;;4946518;29;20300;-80
2020/12/20 05:36:01;;;;;;;22.20;7.43;;;8.00;99.90;;;;;;4944945;28;20209;-80
2020/12/20 05:38:27;;;;;;;20.33;7.10;;;7.90;99.90;;;;;;4949151;29;20255;-83
2020/12/20 05:40:54;;;;;;;17.73;7.60;;;7.90;99.90;;;;;;4950299;29;20201;-87
2020/12/20 05:43:23;;;;;;;16.03;7.43;;;7.90;99.90;;;;;;4947917;29;20233;-84
2020/12/20 05:45:52;;;;;;;13.63;7.10;;;7.90;99.90;;;;;;4931676;29;20217;-80
2020/12/20 05:48:20;;;;;;;14.33;7.20;;;7.90;99.90;;;;;;4948714;29;20203;-81
2020/12/20 05:50:51;;;;;;;13.37;6.40;;;7.80;99.90;;;;;;4948173;29;20205;-80
2020/12/20 05:53:22;;;;;;;15.97;6.87;;;7.80;99.90;;;;;;4947960;29;20553;-80
2020/12/20 05:55:49;;;;;;;19.60;7.43;;;7.70;99.90;;;;;;4948586;29;20197;-81
2020/12/20 05:58:16;;;;;;;20.40;8.40;;;7.70;99.90;;;;;;4948852;29;20217;-80
2020/12/20 06:00:43;;;;;;;15.93;7.27;;;7.60;99.90;;;;;;4947408;29;20665;-82
2020/12/20 06:03:11;;;;;;;17.80;7.90;;;7.60;99.90;;;;;;4948004;29;20252;-80
2020/12/20 06:05:39;;;;;;;18.37;7.30;;;7.70;99.90;;;;;;4947649;29;20202;-81
2020/12/20 06:08:09;;;;;;;15.87;7.10;;;7.60;99.90;;;;;;4948640;29;20201;-80
2020/12/20 06:10:39;;;;;;;20.50;7.33;;;7.60;99.90;;;;;;4948320;29;20209;-80
2020/12/20 06:13:07;;;;;;;20.47;7.60;;;7.60;99.90;;;;;;4947251;29;20213;-80
2020/12/20 06:15:37;;;;;;;25.63;8.33;;;7.60;99.90;;;;;;4949264;29;20209;-80
2020/12/20 06:18:07;;;;;;;18.00;7.27;;;7.60;99.90;;;;;;4946902;29;20567;-80
2020/12/20 06:20:48;;;;;;;17.63;6.90;;;7.60;99.90;;;;;;4944529;29;20261;-80
2020/12/20 06:23:18;;;;;;;17.50;6.90;;;7.60;99.90;;;;;;4928072;29;20285;-80
2020/12/20 06:25:46;;;;;;;20.43;7.90;;;7.60;99.90;;;;;;4928526;29;20201;-80
2020/12/20 06:28:19;;;;;;;19.07;8.47;;;7.60;99.90;;;;;;4927813;29;20202;-82
2020/12/20 06:30:46;;;;;;;13.47;7.37;;;7.60;99.90;;;;;;4926848;29;20310;-83
2020/12/20 06:33:23;;;;;;;20.70;8.97;;;7.50;99.90;;;;;;4926232;29;20231;-82
2020/12/20 06:35:52;;;;;;;16.17;7.60;;;7.50;99.90;;;;;;4927025;29;20281;-82
2020/12/20 06:38:23;;;;;;;19.27;8.70;;;7.60;99.90;;;;;;4926555;29;20206;-81
2020/12/20 06:40:51;;;;;;;20.60;7.27;;;7.60;99.90;;;;;;4927517;29;20970;-82
2020/12/20 06:43:29;;;;;;;17.53;8.40;;;7.60;99.90;;;;;;4928067;29;20705;-81
2020/12/20 06:45:56;;;;;;;22.07;9.70;;;7.60;99.90;;;;;;4927598;29;20579;-81
2020/12/20 06:48:31;;;;;;;18.87;8.40;;;7.60;99.90;;;;;;4927524;29;20234;-82
2020/12/20 06:50:58;;;;;;;18.70;8.17;;;7.70;99.90;;;;;;4927917;29;20411;-81
2020/12/20 06:53:52;;;;;;;17.73;8.07;;;7.70;99.90;;;;;;4927773;29;20249;-80
2020/12/20 06:56:20;;;;;;;18.00;8.20;;;7.70;99.90;;;;;;4928591;29;20210;-85
2020/12/20 06:58:48;;;;;;;20.07;8.30;;;7.70;99.90;;;;;;4926565;29;20654;-82
2020/12/20 07:01:36;;;;;;;24.40;9.17;;;7.70;99.90;;;;;;4925278;29;20242;-84
2020/12/20 07:04:04;;;;;;;20.50;7.83;;;7.80;99.90;;;;;;4926255;29;20328;-83
2020/12/20 07:06:31;;;;;;;25.43;8.27;;;7.80;99.90;;;;;;4926300;29;20210;-82
2020/12/20 07:09:05;;;;;;;23.40;8.87;;;7.80;99.90;;;;;;4929785;29;20210;-90
2020/12/20 07:11:32;;;;;;;19.57;8.10;;;7.90;99.90;;;;;;4931307;29;20564;-81
2020/12/20 07:14:15;;;;;;;19.83;7.23;;;7.80;99.90;;;;;;4932431;29;20206;-85
2020/12/20 07:16:41;;;;;;;17.80;8.43;;;7.90;99.90;;;;;;4929569;29;20194;-80
2020/12/20 07:19:09;;;;;;;17.43;7.73;;;7.90;99.90;;;;;;4936315;29;20209;-83
2020/12/20 07:21:59;;;;;;;22.10;8.50;;;7.90;99.90;;;;;;4939606;29;20220;-85
2020/12/20 07:24:29;;;;;;;22.20;8.90;;;7.90;99.90;;;;;;4945548;29;20228;-78
2020/12/20 07:26:59;;;;;;;25.70;8.40;;;7.90;99.90;;;;;;4945483;29;20217;-81
2020/12/20 07:29:26;;;;;;;21.57;8.63;;;7.90;99.90;;;;;;4945334;29;20212;-79
2020/12/20 07:31:53;;;;;;;20.43;8.33;;;7.90;99.90;;;;;;4945884;29;20252;-86
2020/12/20 07:34:20;;;;;;;20.53;8.23;;;7.90;99.90;;;;;;4950736;29;20216;-85
2020/12/20 07:36:47;;;;;;;20.77;8.10;;;7.90;99.90;;;;;;4948023;29;20248;-87
2020/12/20 07:39:14;;;;;;;17.63;7.93;;;7.90;99.90;;;;;;4946743;29;20216;-84
2020/12/20 07:41:41;;;;;;;16.67;7.10;;;7.90;99.90;;;;;;4948507;29;20216;-83
2020/12/20 07:44:09;;;;;;;27.43;9.00;;;7.80;99.90;;;;;;4945086;29;20236;-79
2020/12/20 07:46:36;;;;;;;34.10;9.90;;;7.80;99.90;;;;;;4944954;29;20220;-78
2020/12/20 07:49:04;;;;;;;17.17;8.33;;;7.90;99.90;;;;;;4946593;29;20212;-79
2020/12/20 07:51:30;;;;;;;18.63;7.97;;;7.90;99.90;;;;;;4945140;29;20516;-79
2020/12/20 07:53:58;;;;;;;20.23;9.37;;;8.00;99.90;;;;;;4945349;29;20208;-79
2020/12/20 07:56:26;;;;;;;17.30;8.67;;;7.90;99.90;;;;;;4946257;29;20768;-78
2020/12/20 07:58:54;;;;;;;21.87;7.73;;;7.90;99.90;;;;;;4946121;28;20633;-80
2020/12/20 08:01:21;;;;;;;20.67;7.60;;;7.90;99.90;;;;;;4946288;29;20249;-77
2020/12/20 08:03:48;;;;;;;19.03;7.23;;;7.90;99.90;;;;;;4946089;29;20244;-81
2020/12/20 08:06:16;;;;;;;19.90;8.50;;;7.90;99.90;;;;;;4946415;29;20268;-79
2020/12/20 08:08:44;;;;;;;21.07;7.90;;;7.90;99.90;;;;;;4946375;29;20660;-80
2020/12/20 08:11:19;;;;;;;25.50;8.43;;;7.90;99.90;;;;;;4945183;29;20209;-86
2020/12/20 08:13:54;;;;;;;24.93;9.23;;;7.90;99.90;;;;;;4946271;29;20523;-83
2020/12/20 08:16:24;;;;;;;28.83;9.90;;;7.90;99.90;;;;;;4945589;29;20788;-82
2020/12/20 08:18:56;;;;;;;20.00;8.33;;;7.90;99.90;;;;;;4946027;29;20221;-83
2020/12/20 08:21:40;;;;;;;18.17;8.00;;;7.90;99.90;;;;;;4947066;29;20189;-84
2020/12/20 08:24:08;;;;;;;26.30;8.37;;;7.90;99.90;;;;;;4933494;29;20236;-85
2020/12/20 08:26:35;;;;;;;22.23;8.37;;;7.90;99.90;;;;;;4947935;29;20221;-84
2020/12/20 08:29:02;;;;;;;15.90;7.77;;;8.00;99.90;;;;;;4947395;29;20237;-80
2020/12/20 08:31:30;;;;;;;28.40;7.73;;;8.00;99.90;;;;;;4946322;29;20291;-79
2020/12/20 08:33:56;;;;;;;26.57;8.07;;;8.00;99.90;;;;;;4946761;29;20205;-79
2020/12/20 08:36:23;;;;;;;24.53;7.43;;;8.00;99.90;;;;;;4947153;29;20679;-78
2020/12/20 08:38:50;;;;;;;29.37;8.90;;;8.10;99.90;;;;;;4946520;29;20205;-79
2020/12/20 08:41:25;;;;;;;24.10;8.67;;;8.10;99.90;;;;;;4947757;29;20205;-77
2020/12/20 08:44:05;;;;;;;17.40;7.50;;;8.10;99.90;;;;;;4947875;29;21034;-78
2020/12/20 08:46:33;;;;;;;25.80;8.30;;;8.10;99.90;;;;;;4946895;29;20577;-79
2020/12/20 08:49:16;;;;;;;19.13;7.20;;;8.10;99.90;;;;;;4947016;29;20481;-78
2020/12/20 08:51:42;;;;;;;26.67;8.17;;;8.20;99.90;;;;;;4946021;29;20216;-80
2020/12/20 08:54:11;;;;;;;23.93;8.13;;;8.20;99.90;;;;;;4946710;29;20202;-79
2020/12/20 08:56:55;;;;;;;20.30;7.07;;;8.20;99.90;;;;;;4946087;29;20244;-80
2020/12/20 08:59:31;;;;;;;21.30;7.00;;;8.20;99.90;;;;;;4946715;29;20190;-80
2020/12/20 09:01:58;;;;;;;21.27;6.97;;;8.20;99.90;;;;;;4947289;29;20530;-78
2020/12/20 09:04:25;;;;;;;22.77;7.30;;;8.30;99.90;;;;;;4947086;29;20569;-84
2020/12/20 09:07:11;;;;;;;26.43;7.77;;;8.20;99.90;;;;;;4947916;29;20205;-82
2020/12/20 09:09:39;;;;;;;28.27;8.10;;;8.20;99.90;;;;;;4947837;29;20209;-78
2020/12/20 09:12:19;;;;;;;14.70;6.07;;;8.30;99.90;;;;;;4949282;28;20212;-80
2020/12/20 09:15:06;;;;;;;28.77;8.10;;;8.30;99.90;;;;;;4951510;29;20850;-78
2020/12/20 09:17:34;;;;;;;22.13;7.17;;;8.30;99.90;;;;;;4951399;29;20228;-82
2020/12/20 09:20:00;;;;;;;24.20;6.83;;;8.40;99.90;;;;;;4950915;29;20211;-79
2020/12/20 09:22:50;;;;;;;23.77;7.20;;;8.40;99.90;;;;;;4950055;29;20227;-86
2020/12/20 09:25:28;;;;;;;26.77;7.83;;;8.40;99.90;;;;;;4950827;29;20204;-84
2020/12/20 09:27:56;;;;;;;24.57;7.77;;;8.40;99.90;;;;;;4950833;29;20320;-83
2020/12/20 09:30:45;;;;;;;20.53;7.10;;;8.50;99.90;;;;;;4950061;29;20684;-83
2020/12/20 09:33:16;;;;;;;28.73;7.90;;;8.50;99.90;;;;;;4948000;29;20237;-77
2020/12/20 09:35:59;;;;;;;27.70;8.50;;;8.50;99.90;;;;;;4950937;29;20216;-77
2020/12/20 09:38:27;;;;;;;24.87;6.73;;;8.50;99.90;;;;;;4951560;29;21036;-80
2020/12/20 09:41:01;;;;;;;23.27;7.47;;;8.50;99.90;;;;;;4950986;29;20259;-83
2020/12/20 09:43:27;;;;;;;24.13;7.10;;;8.50;99.90;;;;;;4949332;29;20229;-80
2020/12/20 09:45:55;;;;;;;24.53;7.20;;;8.60;99.90;;;;;;4950994;29;20268;-86
2020/12/20 09:48:23;;;;;;;25.80;7.10;;;8.60;99.90;;;;;;4951302;29;20209;-80
2020/12/20 09:50:49;;;;;;;19.50;6.30;;;8.60;99.90;;;;;;4951871;29;20865;-78
2020/12/20 09:53:15;;;;;;;21.37;7.20;;;8.60;99.90;;;;;;4944444;29;20206;-80
2020/12/20 09:55:42;;;;;;;20.03;6.60;;;8.60;99.90;;;;;;4929350;29;20272;-82
2020/12/20 09:58:13;;;;;;;21.40;6.40;;;8.60;99.90;;;;;;4929589;29;20202;-86
2020/12/20 10:00:39;;;;;;;20.80;5.93;;;8.70;99.90;;;;;;4933391;29;20249;-78
2020/12/20 10:03:07;;;;;;;25.03;8.23;;;8.70;99.90;;;;;;4935567;29;20670;-79
2020/12/20 10:05:33;;;;;;;20.97;6.40;;;8.70;99.90;;;;;;4946511;29;20213;-82
2020/12/20 10:08:00;;;;;;;18.27;6.73;;;8.70;99.90;;;;;;4935731;29;20214;-86
2020/12/20 10:10:27;;;;;;;18.93;5.93;;;8.80;99.90;;;;;;4937505;29;20257;-83
2020/12/20 10:12:53;;;;;;;18.17;6.07;;;8.70;99.90;;;;;;4938677;29;20221;-84
2020/12/20 10:15:19;;;;;;;16.13;6.10;;;8.70;99.90;;;;;;4942483;29;20221;-83
2020/12/20 10:17:46;;;;;;;23.90;6.60;;;8.80;99.90;;;;;;4934861;29;20202;-79
2020/12/20 10:20:14;;;;;;;22.63;7.30;;;8.70;99.90;;;;;;4937276;29;20217;-84
2020/12/20 10:22:40;;;;;;;21.70;5.73;;;8.70;99.90;;;;;;4939094;29;20213;-86
2020/12/20 10:25:07;;;;;;;21.90;5.03;;;8.80;99.90;;;;;;4931856;29;20218;-81
2020/12/20 10:27:33;;;;;;;29.57;7.37;;;8.80;99.90;;;;;;4937634;29;20273;-87
2020/12/20 10:29:59;;;;;;;19.77;4.83;;;8.90;99.90;;;;;;4932040;29;20261;-78
2020/12/20 10:32:26;;;;;;;26.20;6.37;;;8.90;99.90;;;;;;4930472;29;20206;-80
2020/12/20 10:34:53;;;;;;;14.47;5.23;;;8.90;99.90;;;;;;4931365;29;20206;-79
2020/12/20 10:37:20;;;;;;;17.77;5.33;;;8.90;99.90;;;;;;4931207;29;20202;-86
2020/12/20 10:39:47;;;;;;;18.30;6.43;;;9.00;99.90;;;;;;4932631;29;20678;-86
2020/12/20 10:42:14;;;;;;;21.13;6.43;;;9.00;99.90;;;;;;4931025;29;20262;-83
2020/12/20 10:44:41;;;;;;;23.03;5.87;;;9.10;99.90;;;;;;4931474;29;20237;-86
2020/12/20 10:47:07;;;;;;;24.03;5.90;;;9.10;99.90;;;;;;4932535;29;20609;-83
2020/12/20 10:49:34;;;;;;;18.17;5.23;;;9.10;99.90;;;;;;4932512;29;20210;-87
2020/12/20 10:52:00;;;;;;;20.67;5.63;;;9.20;99.90;;;;;;4930527;29;20252;-84
2020/12/20 10:54:29;;;;;;;19.13;5.40;;;9.20;99.90;;;;;;4932051;29;20202;-79
2020/12/20 10:56:58;;;;;;;22.50;5.83;;;9.30;99.90;;;;;;4933021;29;20241;-86
2020/12/20 10:59:27;;;;;;;17.67;5.73;;;9.30;99.90;;;;;;4931234;29;20206;-89
2020/12/20 11:01:54;;;;;;;19.17;5.43;;;9.40;99.90;;;;;;4932088;29;20793;-84
2020/12/20 11:04:21;;;;;;;17.27;5.37;;;9.50;99.90;;;;;;4932285;29;20234;-90
2020/12/20 11:06:47;;;;;;;15.93;5.00;;;9.50;99.90;;;;;;4930902;29;20548;-80
2020/12/20 11:09:13;;;;;;;16.40;4.73;;;9.50;99.90;;;;;;4931464;29;20951;-86
2020/12/20 11:11:41;;;;;;;15.47;5.07;;;9.50;99.90;;;;;;4932406;29;20210;-80
2020/12/20 11:14:08;;;;;;;19.07;5.87;;;9.50;99.90;;;;;;4931113;29;20209;-88
2020/12/20 11:16:34;;;;;;;20.10;4.43;;;9.50;99.90;;;;;;4932051;29;20210;-89
2020/12/20 11:19:00;;;;;;;18.30;5.30;;;9.50;99.90;;;;;;4931640;29;20209;-89
2020/12/20 11:21:27;;;;;;;14.43;5.27;;;9.50;99.90;;;;;;4942452;29;20213;-79
2020/12/20 11:23:53;;;;;;;15.90;5.07;;;9.50;99.90;;;;;;4949388;29;20225;-80
2020/12/20 11:26:23;;;;;;;17.00;4.63;;;9.60;99.90;;;;;;4949856;29;20481;-92
2020/12/20 11:28:52;;;;;;;19.40;5.77;;;9.70;99.90;;;;;;4950516;29;20256;-86
2020/12/20 11:31:20;;;;;;;16.27;4.37;;;9.70;99.90;;;;;;4950664;29;20228;-89
2020/12/20 11:33:47;;;;;;;13.80;4.20;;;9.80;99.90;;;;;;4948215;28;20205;-79
2020/12/20 11:36:16;;;;;;;13.30;4.23;;;9.80;99.90;;;;;;4948677;29;20201;-94
2020/12/20 11:38:43;;;;;;;19.53;4.57;;;9.90;99.90;;;;;;4952112;29;20213;-86
2020/12/20 11:41:09;;;;;;;20.40;4.87;;;9.90;99.90;;;;;;4950310;29;20201;-90
2020/12/20 11:43:36;;;;;;;15.40;4.60;;;10.00;99.90;;;;;;4949431;29;20292;-85
2020/12/20 11:46:05;;;;;;;23.37;5.17;;;10.00;99.90;;;;;;4950691;29;20201;-80
2020/12/20 11:48:31;;;;;;;19.97;4.40;;;10.00;99.90;;;;;;4950889;29;20205;-88
2020/12/20 11:50:57;;;;;;;17.30;5.03;;;10.00;99.90;;;;;;4949381;29;20209;-87
2020/12/20 11:53:24;;;;;;;16.40;4.87;;;10.00;99.90;;;;;;4949114;29;20206;-87
2020/12/20 11:55:50;;;;;;;18.63;5.20;;;10.00;99.90;;;;;;4949655;29;20205;-86
2020/12/20 11:58:17;;;;;;;21.77;5.70;;;10.00;99.90;;;;;;4947313;29;20205;-82
2020/12/20 12:00:44;;;;;;;13.63;5.33;;;10.00;99.90;;;;;;4950746;29;20676;-86
2020/12/20 12:03:13;;;;;;;15.63;4.70;;;10.00;99.90;;;;;;4946838;29;20680;-77
2020/12/20 12:05:40;;;;;;;22.07;5.27;;;10.10;99.90;;;;;;4947203;29;20241;-78
2020/12/20 12:08:07;;;;;;;16.27;4.77;;;10.10;99.90;;;;;;4945646;29;20209;-77
2020/12/20 12:10:34;;;;;;;16.53;5.03;;;10.10;99.90;;;;;;4946110;29;20244;-78
2020/12/20 12:13:01;;;;;;;15.00;4.57;;;10.10;99.90;;;;;;4945770;29;20209;-80
2020/12/20 12:15:27;;;;;;;18.33;5.30;;;10.10;99.90;;;;;;4945263;29;20328;-78
2020/12/20 12:17:53;;;;;;;16.87;4.13;;;10.10;99.90;;;;;;4944830;29;20210;-77
2020/12/20 12:20:20;;;;;;;18.33;4.63;;;10.10;99.90;;;;;;4946424;29;20213;-79
2020/12/20 12:22:47;;;;;;;14.90;4.23;;;10.20;99.90;;;;;;4945696;29;20661;-76
2020/12/20 12:25:13;;;;;;;12.60;4.93;;;10.20;99.90;;;;;;4946716;29;20205;-78
2020/12/20 12:27:41;;;;;;;14.93;4.87;;;10.30;99.90;;;;;;4946976;29;20294;-76
2020/12/20 12:30:07;;;;;;;17.17;4.83;;;10.20;99.90;;;;;;4946300;29;20201;-82
2020/12/20 12:32:34;;;;;;;14.97;4.80;;;10.20;99.90;;;;;;4947423;29;20197;-91
2020/12/20 12:35:00;;;;;;;22.30;5.87;;;10.30;99.90;;;;;;4947514;29;20202;-76
2020/12/20 12:37:27;;;;;;;15.27;4.97;;;10.20;99.90;;;;;;4946872;29;20209;-76
2020/12/20 12:39:53;;;;;;;16.30;5.60;;;10.20;99.90;;;;;;4946850;29;20214;-78
2020/12/20 12:42:20;;;;;;;17.73;5.40;;;10.20;99.90;;;;;;4946879;29;20594;-78
2020/12/20 12:44:46;;;;;;;17.40;5.80;;;10.20;99.90;;;;;;4945541;29;20244;-82
2020/12/20 12:47:12;;;;;;;16.87;6.20;;;10.20;99.90;;;;;;4945473;29;20227;-77
2020/12/20 12:49:39;;;;;;;16.03;5.40;;;10.20;99.90;;;;;;4946002;29;20216;-83